Terminal Aerodrome Forecast
Issued by NWS

Home | Current Version | Previous Version | Text Only | Print | Product List | Glossary On
Versions: 1 2 3 4 5 6 7 8 9 10 11 12 13
000
FTPA31 PHFO 290537
TAFHOG
TAF
PHOG 290537Z 2906/3006 06012G20KT P6SM VCSH FEW035 SCT060
     FM292000 06018G26KT P6SM FEW035 SCT060=

USA.gov is the U.S. government's official web portal to all federal, state and local government web resources and services.